Time;durP1;ratioP1;P1;durP2;ratioP2;P2;SDS_P1;SDS_P2;PMS_P1;PMS_P2;Temp;Humidity;BMP_temperature;BMP_pressure;BME280_temperature;BME280_humidity;BME280_pressure;Samples;Min_cycle;Max_cycle;Signal;HPM_P1;HPM_P2
2023/09/18 00:01:19;;;;;;;0.88;0.80;;;17.90;99.90;;;;;;5062139;28;20147;-71
2023/09/18 00:03:47;;;;;;;0.77;0.60;;;17.80;99.90;;;;;;5079873;28;20065;-71
2023/09/18 00:06:14;;;;;;;0.55;0.50;;;17.80;1.00;;;;;;5079052;28;20153;-71
2023/09/18 00:08:41;;;;;;;0.40;0.40;;;17.60;1.00;;;;;;5068428;28;20778;-70
2023/09/18 00:11:08;;;;;;;0.50;0.50;;;17.50;1.00;;;;;;5080027;28;20051;-71
2023/09/18 00:13:34;;;;;;;0.82;0.70;;;17.50;1.00;;;;;;5079943;28;20502;-71
2023/09/18 00:16:03;;;;;;;0.82;0.65;;;17.50;1.00;;;;;;5079738;28;20432;-71
2023/09/18 00:18:30;;;;;;;0.45;0.45;;;17.40;1.00;;;;;;5081324;28;20106;-73
2023/09/18 00:20:57;;;;;;;0.63;0.55;;;17.40;1.00;;;;;;5061840;28;20054;-73
2023/09/18 00:23:25;;;;;;;0.95;0.60;;;17.40;1.00;;;;;;5074237;28;20089;-71
2023/09/18 00:25:52;;;;;;;0.40;0.40;;;17.40;1.00;;;;;;5081408;28;20090;-71
2023/09/18 00:28:18;;;;;;;0.43;0.32;;;17.40;1.00;;;;;;5068499;28;20059;-72
2023/09/18 00:30:49;;;;;;;0.40;0.40;;;17.30;1.00;;;;;;5063164;28;20056;-71
2023/09/18 00:33:19;;;;;;;0.40;0.40;;;17.20;1.00;;;;;;5071829;28;20432;-71
2023/09/18 00:35:47;;;;;;;0.50;0.45;;;17.20;1.00;;;;;;5079018;28;20051;-71
2023/09/18 00:38:15;;;;;;;0.65;0.47;;;17.20;1.00;;;;;;5044338;28;20120;-71
2023/09/18 00:40:42;;;;;;;0.43;0.40;;;17.20;1.00;;;;;;5062665;28;20044;-71
2023/09/18 00:43:10;;;;;;;0.55;0.55;;;17.20;1.00;;;;;;5070724;28;20058;-74
2023/09/18 00:45:42;;;;;;;0.82;0.47;;;17.10;1.00;;;;;;5079355;28;20055;-74
2023/09/18 00:48:09;;;;;;;1.70;0.60;;;17.10;1.00;;;;;;5079532;28;20044;-74
2023/09/18 00:50:36;;;;;;;1.02;0.60;;;17.10;1.00;;;;;;5079740;28;20436;-73
2023/09/18 00:53:03;;;;;;;0.55;0.45;;;17.00;1.00;;;;;;5061525;28;20062;-73
2023/09/18 00:55:30;;;;;;;0.60;0.60;;;17.00;1.00;;;;;;5063605;28;20054;-74
2023/09/18 00:57:57;;;;;;;0.47;0.43;;;16.90;1.00;;;;;;5078876;28;20093;-73
2023/09/18 01:00:24;;;;;;;0.70;0.50;;;16.90;1.00;;;;;;5079635;28;20040;-74
2023/09/18 01:02:51;;;;;;;0.60;0.40;;;16.90;1.00;;;;;;5078665;28;20048;-72
2023/09/18 01:05:20;;;;;;;0.70;0.50;;;16.90;1.00;;;;;;5079593;28;20048;-72
2023/09/18 01:07:47;;;;;;;0.80;0.80;;;16.90;1.00;;;;;;5079442;28;20123;-72
2023/09/18 01:10:16;;;;;;;1.45;0.70;;;16.90;1.00;;;;;;5062626;28;20051;-72
2023/09/18 01:13:04;;;;;;;0.47;0.45;;;16.90;1.00;;;;;;5079517;28;20055;-71
2023/09/18 01:15:35;;;;;;;1.67;0.98;;;17.00;1.00;;;;;;5062810;28;20044;-72
2023/09/18 01:18:03;;;;;;;1.10;0.60;;;17.00;1.00;;;;;;5027568;28;20072;-72
2023/09/18 01:20:30;;;;;;;0.95;0.63;;;17.00;1.00;;;;;;5060466;28;20149;-72
2023/09/18 01:22:57;;;;;;;1.27;0.60;;;17.10;1.00;;;;;;5068623;28;20044;-72
2023/09/18 01:25:23;;;;;;;0.90;0.50;;;17.10;1.00;;;;;;5083455;28;20044;-72
2023/09/18 01:27:51;;;;;;;0.75;0.60;;;17.10;1.00;;;;;;5078850;28;20094;-72
2023/09/18 01:30:18;;;;;;;1.00;0.70;;;17.10;1.00;;;;;;5070275;28;20044;-71
2023/09/18 01:32:45;;;;;;;1.15;0.80;;;17.10;1.00;;;;;;5016983;28;20055;-72
2023/09/18 01:35:12;;;;;;;1.13;0.60;;;17.10;1.00;;;;;;5031070;28;20508;-71
2023/09/18 01:37:39;;;;;;;0.40;0.40;;;17.10;1.00;;;;;;5043650;28;20056;-72
2023/09/18 01:40:07;;;;;;;0.60;0.40;;;17.10;1.00;;;;;;5027257;28;20052;-72
2023/09/18 01:42:34;;;;;;;0.73;0.47;;;17.10;1.00;;;;;;5044216;28;20055;-72
2023/09/18 01:45:02;;;;;;;0.95;0.70;;;17.10;1.00;;;;;;5012629;28;20123;-72
2023/09/18 01:47:28;;;;;;;0.60;0.45;;;17.10;1.00;;;;;;5044075;28;20060;-72
2023/09/18 01:49:56;;;;;;;1.08;0.70;;;17.10;1.00;;;;;;5044432;28;20041;-72
2023/09/18 01:52:22;;;;;;;0.25;0.25;;;17.00;1.00;;;;;;5044202;28;20056;-72
2023/09/18 01:54:49;;;;;;;0.90;0.80;;;17.00;1.00;;;;;;5045719;28;20052;-72
2023/09/18 01:57:16;;;;;;;0.80;0.52;;;16.90;1.00;;;;;;5011369;28;20060;-72
2023/09/18 01:59:45;;;;;;;0.90;0.65;;;16.90;1.00;;;;;;5044823;28;20087;-71
2023/09/18 02:02:12;;;;;;;0.30;0.30;;;16.90;1.00;;;;;;5039814;28;20054;-72
2023/09/18 02:04:46;;;;;;;0.80;0.70;;;16.90;1.00;;;;;;5044345;28;20442;-72
2023/09/18 02:07:33;;;;;;;0.90;0.68;;;16.80;1.00;;;;;;5043242;28;20150;-72
2023/09/18 02:10:00;;;;;;;0.55;0.40;;;16.80;1.00;;;;;;5024483;28;20067;-72
2023/09/18 02:12:27;;;;;;;0.88;0.60;;;16.80;1.00;;;;;;5043513;28;20531;-73
2023/09/18 02:14:57;;;;;;;0.82;0.55;;;16.80;1.00;;;;;;5045451;28;20047;-73
2023/09/18 02:17:24;;;;;;;0.40;0.40;;;16.80;1.00;;;;;;5043585;28;20067;-72
2023/09/18 02:19:51;;;;;;;0.70;0.60;;;16.70;1.00;;;;;;5044370;28;20041;-73
2023/09/18 02:22:18;;;;;;;0.55;0.45;;;16.70;1.00;;;;;;5042315;28;20053;-72
2023/09/18 02:24:45;;;;;;;0.50;0.35;;;16.70;1.00;;;;;;5027855;28;20041;-72
2023/09/18 02:27:12;;;;;;;0.30;0.30;;;16.70;1.00;;;;;;5010914;28;20056;-72
2023/09/18 02:29:40;;;;;;;0.68;0.40;;;16.60;1.00;;;;;;5026072;28;20080;-72
2023/09/18 02:32:06;;;;;;;0.50;0.47;;;16.70;1.00;;;;;;5045263;28;20052;-72
2023/09/18 02:34:34;;;;;;;0.40;0.30;;;16.70;1.00;;;;;;5085317;28;20582;-72
2023/09/18 02:37:00;;;;;;;0.50;0.47;;;16.70;1.00;;;;;;5080838;28;20139;-72
2023/09/18 02:39:27;;;;;;;0.30;0.30;;;16.60;1.00;;;;;;5050645;28;20047;-72
2023/09/18 02:41:54;;;;;;;0.43;0.43;;;16.60;1.00;;;;;;5084473;28;20052;-73
2023/09/18 02:44:21;;;;;;;1.30;0.60;;;16.50;1.00;;;;;;5068004;28;20041;-72
2023/09/18 02:46:48;;;;;;;0.77;0.40;;;16.50;1.00;;;;;;5064555;28;20059;-72
2023/09/18 02:49:15;;;;;;;0.38;0.38;;;16.50;1.00;;;;;;5064881;28;20499;-72
2023/09/18 02:51:41;;;;;;;0.50;0.40;;;16.50;1.00;;;;;;5063775;28;20098;-72
2023/09/18 02:54:08;;;;;;;1.55;0.60;;;16.40;1.00;;;;;;5079587;28;20093;-73
2023/09/18 02:56:35;;;;;;;1.25;0.60;;;16.40;1.00;;;;;;5084778;28;20044;-73
2023/09/18 02:59:02;;;;;;;0.47;0.43;;;16.40;1.00;;;;;;5083446;28;20091;-72
2023/09/18 03:01:29;;;;;;;0.60;0.40;;;16.40;1.00;;;;;;5083163;28;20067;-72
2023/09/18 03:03:56;;;;;;;0.80;0.50;;;16.40;1.00;;;;;;5080395;28;20587;-72
2023/09/18 03:06:23;;;;;;;0.68;0.40;;;16.30;1.00;;;;;;5083983;28;20044;-72
2023/09/18 03:08:50;;;;;;;1.10;0.60;;;16.30;1.00;;;;;;5084136;28;20063;-72
2023/09/18 03:11:17;;;;;;;1.15;0.50;;;16.30;1.00;;;;;;5065935;28;20051;-73
2023/09/18 03:13:47;;;;;;;1.02;0.45;;;16.30;1.00;;;;;;5084236;28;20152;-72
2023/09/18 03:16:14;;;;;;;0.70;0.55;;;16.30;1.00;;;;;;5066729;28;20040;-72
2023/09/18 03:18:41;;;;;;;0.63;0.50;;;16.30;1.00;;;;;;5083484;28;20098;-75
2023/09/18 03:21:08;;;;;;;0.98;0.60;;;16.30;1.00;;;;;;5082321;28;20499;-72
2023/09/18 03:23:36;;;;;;;0.65;0.50;;;16.30;1.00;;;;;;5082407;28;20434;-73
2023/09/18 03:26:03;;;;;;;1.52;0.63;;;16.30;1.00;;;;;;5083256;28;20048;-73
2023/09/18 03:28:30;;;;;;;0.88;0.65;;;16.30;1.00;;;;;;5082829;28;20430;-72
2023/09/18 03:30:58;;;;;;;1.38;0.70;;;16.30;1.00;;;;;;5082567;28;20514;-73
2023/09/18 03:33:25;;;;;;;1.00;0.47;;;16.30;1.00;;;;;;5073434;28;20048;-73
2023/09/18 03:35:54;;;;;;;1.60;0.90;;;16.20;1.00;;;;;;5074832;28;20101;-72
2023/09/18 03:38:21;;;;;;;0.70;0.60;;;16.20;1.00;;;;;;5058149;28;20044;-72
2023/09/18 03:40:48;;;;;;;2.50;0.80;;;16.20;1.00;;;;;;5063980;28;20476;-73
2023/09/18 03:43:15;;;;;;;1.50;0.90;;;16.20;1.00;;;;;;5051307;28;20055;-73
2023/09/18 03:45:42;;;;;;;1.80;0.70;;;16.20;1.00;;;;;;5063788;28;20048;-73
2023/09/18 03:48:10;;;;;;;1.30;0.82;;;16.20;1.00;;;;;;5061428;28;20072;-72
2023/09/18 03:50:38;;;;;;;1.50;0.93;;;16.20;1.00;;;;;;5080771;28;20052;-73
2023/09/18 03:53:06;;;;;;;1.60;0.80;;;16.20;1.00;;;;;;5069047;28;20441;-72
2023/09/18 03:55:33;;;;;;;2.63;1.38;;;16.20;1.00;;;;;;5083840;28;20040;-72
2023/09/18 03:58:01;;;;;;;1.80;0.73;;;16.20;1.00;;;;;;5083207;28;20106;-72
2023/09/18 04:00:27;;;;;;;1.33;0.77;;;16.20;1.00;;;;;;5083421;28;20086;-73
2023/09/18 04:02:54;;;;;;;1.27;0.80;;;16.20;1.00;;;;;;5081617;28;20044;-72
2023/09/18 04:05:22;;;;;;;1.77;1.00;;;16.20;1.00;;;;;;5082504;28;20453;-73
2023/09/18 04:07:49;;;;;;;1.25;0.82;;;16.20;1.00;;;;;;5082050;28;20581;-73
2023/09/18 04:10:22;;;;;;;1.35;0.70;;;16.20;1.00;;;;;;5081847;28;20052;-73
2023/09/18 04:12:50;;;;;;;2.58;1.00;;;16.20;1.00;;;;;;5076678;28;20113;-73
2023/09/18 04:15:18;;;;;;;0.98;0.90;;;16.20;1.00;;;;;;5082426;28;20101;-72
2023/09/18 04:17:45;;;;;;;1.65;0.90;;;16.30;1.00;;;;;;5081877;28;20051;-73
2023/09/18 04:20:13;;;;;;;1.42;0.90;;;16.30;1.00;;;;;;5065320;28;20062;-73
2023/09/18 04:22:50;;;;;;;0.82;0.60;;;16.30;1.00;;;;;;5063546;28;20051;-72
2023/09/18 04:25:19;;;;;;;2.53;0.90;;;16.30;1.00;;;;;;5060017;28;20048;-73
2023/09/18 04:27:49;;;;;;;0.98;0.57;;;16.20;1.00;;;;;;5079633;28;20099;-72
2023/09/18 04:30:19;;;;;;;0.95;0.73;;;16.30;1.00;;;;;;5081879;28;20487;-72
2023/09/18 04:32:46;;;;;;;1.73;0.80;;;16.30;1.00;;;;;;5064478;28;20135;-73
2023/09/18 04:35:14;;;;;;;1.25;0.80;;;16.30;1.00;;;;;;5081370;28;20044;-72
2023/09/18 04:37:43;;;;;;;1.15;0.63;;;16.30;1.00;;;;;;5082006;28;20055;-88
2023/09/18 04:40:11;;;;;;;1.05;0.73;;;16.30;1.00;;;;;;5042742;28;20056;-77
2023/09/18 04:42:39;;;;;;;0.65;0.57;;;16.30;1.00;;;;;;5071609;28;20048;-77
2023/09/18 04:45:06;;;;;;;0.47;0.47;;;16.30;1.00;;;;;;5048287;28;20047;-77
2023/09/18 04:47:33;;;;;;;1.48;0.80;;;16.30;1.00;;;;;;5064832;28;20045;-77
2023/09/18 04:50:00;;;;;;;0.82;0.60;;;16.30;1.00;;;;;;5081512;28;20579;-77
2023/09/18 04:52:27;;;;;;;1.05;0.80;;;16.30;1.00;;;;;;5056631;28;20036;-78
2023/09/18 04:54:54;;;;;;;0.60;0.60;;;16.30;1.00;;;;;;5080380;28;20044;-78
2023/09/18 04:57:22;;;;;;;0.68;0.52;;;16.30;1.00;;;;;;5064513;28;20810;-78
2023/09/18 04:59:50;;;;;;;1.33;0.70;;;16.30;1.00;;;;;;5064441;28;20044;-78
2023/09/18 05:02:27;;;;;;;2.35;0.82;;;16.30;1.00;;;;;;5050828;28;20041;-77
2023/09/18 05:04:56;;;;;;;1.80;0.90;;;16.30;1.00;;;;;;5062728;28;20051;-77
2023/09/18 05:07:22;;;;;;;1.13;0.70;;;16.30;1.00;;;;;;5068686;28;20052;-77
2023/09/18 05:09:49;;;;;;;1.42;0.82;;;16.30;1.00;;;;;;5077507;28;20040;-77
2023/09/18 05:12:16;;;;;;;1.17;0.70;;;16.30;1.00;;;;;;5059244;28;20052;-77
2023/09/18 05:14:43;;;;;;;0.95;0.77;;;16.30;1.00;;;;;;5058609;28;20628;-77
2023/09/18 05:17:13;;;;;;;0.60;0.50;;;16.30;1.00;;;;;;5072904;28;20621;-76
2023/09/18 05:19:43;;;;;;;1.15;0.80;;;16.30;1.00;;;;;;5045000;28;20044;-77
2023/09/18 05:22:10;;;;;;;0.95;0.88;;;16.30;1.00;;;;;;5071929;28;20052;-77
2023/09/18 05:24:40;;;;;;;0.63;0.63;;;16.30;1.00;;;;;;5072099;28;20045;-77
2023/09/18 05:27:07;;;;;;;0.88;0.77;;;16.40;1.00;;;;;;5073628;28;20534;-77
2023/09/18 05:29:36;;;;;;;1.10;0.80;;;16.40;1.00;;;;;;5056814;28;20601;-77
2023/09/18 05:32:03;;;;;;;2.78;0.57;;;16.40;1.00;;;;;;5077260;28;20052;-77
2023/09/18 05:34:31;;;;;;;0.82;0.68;;;16.50;1.00;;;;;;5070247;28;20131;-77
2023/09/18 05:36:59;;;;;;;0.73;0.57;;;16.50;1.00;;;;;;5065315;28;20057;-87
2023/09/18 05:39:29;;;;;;;0.85;0.60;;;16.60;1.00;;;;;;5059775;28;20579;-85
2023/09/18 05:42:04;;;;;;;0.75;0.57;;;16.60;1.00;;;;;;5049728;28;20071;-86
2023/09/18 05:44:33;;;;;;;1.25;0.65;;;16.60;1.00;;;;;;5080471;28;20047;-79
2023/09/18 05:47:03;;;;;;;1.00;0.63;;;16.60;1.00;;;;;;5054138;28;20092;-81
2023/09/18 05:49:30;;;;;;;0.98;0.50;;;16.60;1.00;;;;;;5054558;28;20123;-81
2023/09/18 05:51:57;;;;;;;1.13;0.80;;;16.60;1.00;;;;;;5072824;28;20052;-81
2023/09/18 05:54:24;;;;;;;1.23;0.80;;;16.50;1.00;;;;;;5055500;28;20044;-81
2023/09/18 05:56:51;;;;;;;0.50;0.50;;;16.50;1.00;;;;;;5052237;28;20070;-81
2023/09/18 05:59:20;;;;;;;0.60;0.57;;;16.50;1.00;;;;;;5034338;28;20088;-82
2023/09/18 06:01:49;;;;;;;0.52;0.50;;;16.50;1.00;;;;;;5047723;28;20056;-82
2023/09/18 06:04:16;;;;;;;0.60;0.60;;;16.50;1.00;;;;;;5046568;28;20221;-83
2023/09/18 06:06:44;;;;;;;1.13;0.80;;;16.50;1.00;;;;;;5058158;28;20151;-82
2023/09/18 06:09:11;;;;;;;0.85;0.80;;;16.50;1.00;;;;;;5067624;28;20073;-81
2023/09/18 06:11:38;;;;;;;1.10;0.80;;;16.50;1.00;;;;;;5049148;28;20075;-81
2023/09/18 06:14:05;;;;;;;0.68;0.63;;;16.50;1.00;;;;;;5080608;28;20080;-83
2023/09/18 06:16:32;;;;;;;0.95;0.68;;;16.50;99.90;;;;;;5081210;28;20067;-75
2023/09/18 06:19:00;;;;;;;0.73;0.60;;;16.50;99.90;;;;;;5057536;28;20047;-72
2023/09/18 06:21:28;;;;;;;1.45;0.98;;;16.50;99.90;;;;;;5079389;28;20059;-74
2023/09/18 06:23:55;;;;;;;1.13;0.60;;;16.50;99.90;;;;;;5082696;28;20052;-73
2023/09/18 06:26:22;;;;;;;1.17;0.93;;;16.50;99.90;;;;;;5082781;28;20097;-73
2023/09/18 06:28:52;;;;;;;0.80;0.80;;;16.60;99.90;;;;;;5084677;28;20058;-89
2023/09/18 06:31:23;;;;;;;1.90;1.00;;;16.60;99.90;;;;;;5066075;28;20337;-74
2023/09/18 06:33:50;;;;;;;0.77;0.60;;;16.60;99.90;;;;;;5083359;28;20410;-73
2023/09/18 06:36:17;;;;;;;0.55;0.55;;;16.70;99.90;;;;;;5082104;28;20131;-74
2023/09/18 06:38:44;;;;;;;1.35;0.95;;;16.70;99.90;;;;;;5084614;28;20048;-74
2023/09/18 06:41:11;;;;;;;1.77;1.02;;;16.70;99.90;;;;;;5065804;28;20044;-73
2023/09/18 06:43:37;;;;;;;1.20;0.90;;;16.70;99.90;;;;;;5084541;28;20075;-74
2023/09/18 06:46:07;;;;;;;1.50;1.10;;;16.70;99.90;;;;;;5083260;28;20052;-74
2023/09/18 06:48:34;;;;;;;1.30;1.00;;;16.80;99.90;;;;;;5067191;28;20416;-73
2023/09/18 06:51:01;;;;;;;0.85;0.80;;;16.80;99.90;;;;;;5083655;28;20055;-73
2023/09/18 06:53:28;;;;;;;0.90;0.80;;;16.90;99.90;;;;;;5081381;28;20403;-75
2023/09/18 06:55:55;;;;;;;1.10;0.75;;;16.90;99.90;;;;;;5083196;28;20059;-75
2023/09/18 06:58:22;;;;;;;1.23;0.90;;;17.00;99.90;;;;;;5082796;28;20128;-75
2023/09/18 07:00:52;;;;;;;1.50;1.10;;;17.00;99.90;;;;;;5082504;28;20044;-75
2023/09/18 07:03:19;;;;;;;0.77;0.77;;;17.10;99.90;;;;;;5083702;28;20124;-75
2023/09/18 07:05:48;;;;;;;1.00;0.70;;;17.20;99.90;;;;;;5084384;28;20052;-75
2023/09/18 07:08:22;;;;;;;0.75;0.70;;;17.20;99.90;;;;;;5082808;28;20048;-75
2023/09/18 07:10:50;;;;;;;1.15;0.90;;;17.20;99.90;;;;;;5084248;28;20056;-75
2023/09/18 07:13:17;;;;;;;0.85;0.77;;;17.30;99.90;;;;;;5065452;28;20491;-75
2023/09/18 07:15:44;;;;;;;1.20;1.10;;;17.40;99.90;;;;;;5084170;28;20143;-75
2023/09/18 07:18:14;;;;;;;1.08;0.93;;;17.50;99.90;;;;;;5082241;28;20072;-74
2023/09/18 07:20:41;;;;;;;1.70;1.30;;;17.50;99.90;;;;;;5066529;28;20113;-72
2023/09/18 07:23:08;;;;;;;2.67;1.70;;;17.60;99.90;;;;;;5081575;28;20044;-73
2023/09/18 07:25:38;;;;;;;1.60;1.10;;;17.60;99.90;;;;;;5066317;28;20048;-73
2023/09/18 07:28:08;;;;;;;1.02;0.88;;;17.80;99.90;;;;;;5082074;28;20137;-75
2023/09/18 07:30:37;;;;;;;1.48;0.90;;;17.80;99.90;;;;;;5083308;28;20067;-73
2023/09/18 07:33:05;;;;;;;1.80;1.08;;;17.80;99.90;;;;;;5079477;28;20055;-73
2023/09/18 07:35:32;;;;;;;1.02;0.73;;;17.70;99.90;;;;;;5062444;28;20131;-73
2023/09/18 07:37:59;;;;;;;0.93;0.85;;;17.70;99.90;;;;;;5073443;28;20055;-73
2023/09/18 07:40:26;;;;;;;1.20;1.10;;;17.70;99.90;;;;;;5081336;28;20120;-73
2023/09/18 07:42:53;;;;;;;1.20;1.10;;;17.60;99.90;;;;;;5068381;28;20055;-73
2023/09/18 07:45:20;;;;;;;1.10;0.80;;;17.60;99.90;;;;;;5082147;28;20063;-73
2023/09/18 07:47:46;;;;;;;1.27;0.93;;;17.60;99.90;;;;;;5081829;28;20044;-74
2023/09/18 07:50:14;;;;;;;1.38;0.82;;;17.60;99.90;;;;;;5081710;28;20432;-73
2023/09/18 07:52:44;;;;;;;1.15;1.00;;;17.70;99.90;;;;;;5081462;28;20109;-74
2023/09/18 07:55:11;;;;;;;0.77;0.65;;;17.80;99.90;;;;;;5081406;28;20052;-74
2023/09/18 07:57:38;;;;;;;1.17;0.75;;;17.90;99.90;;;;;;5076468;28;20058;-74
2023/09/18 08:00:07;;;;;;;0.90;0.80;;;17.90;99.90;;;;;;5073209;28;20076;-74
2023/09/18 08:02:34;;;;;;;0.80;0.80;;;18.00;92.20;;;;;;5072998;28;20056;-75
2023/09/18 08:05:01;;;;;;;1.10;0.90;;;18.00;94.00;;;;;;5078275;28;20051;-75
2023/09/18 08:07:29;;;;;;;1.13;0.95;;;18.00;53.10;;;;;;5059753;28;20123;-75
2023/09/18 08:09:56;;;;;;;1.80;0.90;;;18.10;39.30;;;;;;5076867;28;20048;-76
2023/09/18 08:12:23;;;;;;;1.00;0.70;;;18.10;1.00;;;;;;5076938;28;20479;-75
2023/09/18 08:14:50;;;;;;;0.98;0.70;;;18.10;1.00;;;;;;5061400;28;20876;-75
2023/09/18 08:17:18;;;;;;;1.63;0.80;;;18.20;1.00;;;;;;5059500;28;20052;-74
2023/09/18 08:19:45;;;;;;;1.30;0.80;;;18.20;1.00;;;;;;5076624;28;20078;-75
2023/09/18 08:22:15;;;;;;;1.35;0.80;;;18.40;1.00;;;;;;5040373;28;20044;-74
2023/09/18 08:24:42;;;;;;;1.45;1.23;;;18.50;99.90;;;;;;5070545;28;20048;-74
2023/09/18 08:27:09;;;;;;;1.67;1.02;;;18.60;99.90;;;;;;5063531;28;20054;-76
2023/09/18 08:29:35;;;;;;;0.73;0.68;;;18.70;99.90;;;;;;5062137;28;20052;-75
2023/09/18 08:32:03;;;;;;;1.40;0.90;;;18.70;99.90;;;;;;5077352;28;20463;-74
2023/09/18 08:34:30;;;;;;;1.85;0.70;;;18.80;99.90;;;;;;5080180;28;20048;-76
2023/09/18 08:36:57;;;;;;;0.85;0.77;;;18.80;99.90;;;;;;5047514;28;20403;-76
2023/09/18 08:39:24;;;;;;;0.70;0.50;;;18.80;99.90;;;;;;5064649;28;20067;-76
2023/09/18 08:41:51;;;;;;;1.08;0.75;;;18.90;99.90;;;;;;5064593;28;20155;-76
2023/09/18 08:44:18;;;;;;;1.00;0.60;;;19.00;99.90;;;;;;5047946;28;20336;-74
2023/09/18 08:46:45;;;;;;;1.08;0.80;;;19.10;99.90;;;;;;5047944;28;20044;-76
2023/09/18 08:49:12;;;;;;;1.45;0.77;;;19.20;20.10;;;;;;5064697;28;20505;-76
2023/09/18 08:51:39;;;;;;;0.80;0.55;;;19.30;1.00;;;;;;5046705;28;20051;-76
2023/09/18 08:54:06;;;;;;;0.40;0.40;;;19.40;1.00;;;;;;5080519;28;20044;-75
2023/09/18 08:56:33;;;;;;;0.75;0.60;;;19.50;1.00;;;;;;5080547;28;20087;-75
2023/09/18 08:59:00;;;;;;;0.63;0.60;;;19.70;99.90;;;;;;5081082;28;20060;-75
2023/09/18 09:01:27;;;;;;;1.77;0.73;;;19.80;1.00;;;;;;5081781;28;20079;-74
2023/09/18 09:03:55;;;;;;;0.95;0.90;;;19.90;30.90;;;;;;5080608;28;20063;-75
2023/09/18 09:06:22;;;;;;;1.48;0.75;;;20.10;75.90;;;;;;5079846;28;20040;-75
2023/09/18 09:08:49;;;;;;;1.65;0.70;;;20.20;99.90;;;;;;5080605;28;20044;-74
2023/09/18 09:11:17;;;;;;;1.00;0.65;;;20.40;9.70;;;;;;5064115;28;20138;-75
2023/09/18 09:13:44;;;;;;;1.00;0.50;;;20.60;1.00;;;;;;5080318;28;20123;-74
2023/09/18 09:16:13;;;;;;;0.90;0.75;;;20.80;1.00;;;;;;5081718;28;20060;-74
2023/09/18 09:18:49;;;;;;;0.40;0.40;;;20.80;99.90;;;;;;5067692;28;20118;-77
2023/09/18 09:21:17;;;;;;;0.75;0.60;;;21.20;97.00;;;;;;5059137;28;20060;-74
2023/09/18 09:23:52;;;;;;;0.90;0.50;;;21.30;99.90;;;;;;5069046;28;20048;-74
2023/09/18 09:26:21;;;;;;;0.65;0.50;;;21.40;1.00;;;;;;5048817;28;20044;-74
2023/09/18 09:28:48;;;;;;;1.50;0.73;;;21.40;99.90;;;;;;5080662;28;20218;-74
2023/09/18 09:31:24;;;;;;;1.17;0.63;;;21.50;1.00;;;;;;5080171;28;20451;-77
2023/09/18 09:33:55;;;;;;;0.80;0.60;;;21.40;99.90;;;;;;5081817;28;20358;-74
2023/09/18 09:36:22;;;;;;;0.40;0.40;;;21.20;1.00;;;;;;5079570;28;20052;-74
2023/09/18 09:38:54;;;;;;;0.40;0.32;;;21.20;1.00;;;;;;5080711;28;20055;-74
2023/09/18 09:41:21;;;;;;;0.75;0.50;;;21.10;21.70;;;;;;5060953;28;20139;-74
2023/09/18 09:43:49;;;;;;;2.00;0.70;;;21.00;99.90;;;;;;5049659;28;20047;-74
2023/09/18 09:46:21;;;;;;;0.75;0.43;;;21.00;1.00;;;;;;5047004;28;20044;-73
2023/09/18 09:49:01;;;;;;;;;;;21.00;1.00;;;;;;5064370;28;20524;-74
2023/09/18 09:51:29;;;;;;;1.08;0.60;;;21.00;1.00;;;;;;5064022;28;19950;-74
2023/09/18 09:53:58;;;;;;;1.02;0.70;;;20.90;1.00;;;;;;5073673;28;20420;-74
2023/09/18 09:56:44;;;;;;;0.57;0.43;;;20.80;99.90;;;;;;5083918;28;20466;-74
2023/09/18 09:59:13;;;;;;;0.55;0.30;;;20.90;85.20;;;;;;5051287;28;20696;-75
2023/09/18 10:01:44;;;;;;;0.65;0.55;;;20.90;1.00;;;;;;5066687;28;20150;-75
2023/09/18 10:04:19;;;;;;;0.95;0.57;;;20.80;1.00;;;;;;5067947;28;20074;-75
2023/09/18 10:07:02;;;;;;;0.80;0.50;;;20.80;1.00;;;;;;5066645;28;20052;-75
2023/09/18 10:09:29;;;;;;;0.40;0.30;;;20.80;1.00;;;;;;5068113;28;20060;-75
2023/09/18 10:11:57;;;;;;;0.50;0.40;;;20.70;99.90;;;;;;5083657;28;20059;-74
2023/09/18 10:14:31;;;;;;;0.30;0.30;;;20.70;99.90;;;;;;5067026;28;20062;-74
2023/09/18 10:17:18;;;;;;;0.70;0.50;;;20.80;1.00;;;;;;5054930;28;20044;-74
2023/09/18 10:20:08;;;;;;;0.70;0.38;;;20.70;99.90;;;;;;5067057;28;20047;-74
2023/09/18 10:22:42;;;;;;;1.52;0.80;;;20.70;99.90;;;;;;5080547;28;20048;-75
2023/09/18 10:25:29;;;;;;;1.17;0.50;;;20.60;99.90;;;;;;5064333;28;20524;-75
2023/09/18 10:27:58;;;;;;;0.50;0.30;;;20.60;99.90;;;;;;5055772;28;20052;-75
2023/09/18 10:30:26;;;;;;;1.08;0.70;;;20.30;99.90;;;;;;5060297;28;20067;-75
2023/09/18 10:32:54;;;;;;;0.85;0.60;;;20.10;99.90;;;;;;5076588;28;20063;-74
2023/09/18 10:35:21;;;;;;;0.98;0.60;;;19.90;99.90;;;;;;5075820;28;20063;-74
2023/09/18 10:37:50;;;;;;;0.30;0.30;;;19.90;99.90;;;;;;5081430;28;20060;-75
2023/09/18 10:40:17;;;;;;;0.40;0.38;;;20.10;1.00;;;;;;5083832;28;20131;-75
2023/09/18 10:42:45;;;;;;;0.40;0.38;;;20.20;1.00;;;;;;5082683;28;20044;-75
2023/09/18 10:45:11;;;;;;;0.20;0.20;;;20.20;1.00;;;;;;5078331;28;20060;-75
2023/09/18 10:47:39;;;;;;;0.32;0.30;;;20.30;16.50;;;;;;5074241;28;20484;-75
2023/09/18 10:50:08;;;;;;;0.50;0.20;;;20.10;99.90;;;;;;5065697;28;20052;-75
2023/09/18 10:52:36;;;;;;;0.60;0.47;;;19.90;1.00;;;;;;5073298;28;20055;-76
2023/09/18 10:55:04;;;;;;;0.65;0.40;;;19.80;99.90;;;;;;5042716;28;20137;-75
2023/09/18 10:57:35;;;;;;;0.52;0.50;;;19.70;91.60;;;;;;5075959;28;20461;-75
2023/09/18 11:00:13;;;;;;;1.05;0.50;;;19.70;99.90;;;;;;5061896;28;20159;-76
2023/09/18 11:02:43;;;;;;;0.40;0.30;;;19.80;99.90;;;;;;5078446;28;20131;-74
2023/09/18 11:05:10;;;;;;;0.43;0.40;;;20.20;99.90;;;;;;5076555;28;20073;-75
2023/09/18 11:07:37;;;;;;;0.57;0.30;;;20.60;99.90;;;;;;5061098;28;20076;-74
2023/09/18 11:10:26;;;;;;;0.30;0.30;;;20.60;99.90;;;;;;5050485;28;20052;-74
2023/09/18 11:12:54;;;;;;;0.43;0.30;;;20.60;99.90;;;;;;5068429;28;20044;-74
2023/09/18 11:15:39;;;;;;;0.50;0.40;;;20.70;1.00;;;;;;5076055;28;20475;-74
2023/09/18 11:18:06;;;;;;;0.40;0.40;;;20.80;99.90;;;;;;5066563;28;20294;-74
2023/09/18 11:20:37;;;;;;;0.50;0.40;;;20.80;99.90;;;;;;5054982;28;20147;-74
2023/09/18 11:23:16;;;;;;;0.80;0.60;;;20.80;99.90;;;;;;5057071;28;20055;-74
2023/09/18 11:25:48;;;;;;;1.33;0.50;;;20.70;99.90;;;;;;5064961;28;20147;-74
2023/09/18 11:28:17;;;;;;;0.50;0.50;;;20.60;99.90;;;;;;5060176;28;20128;-74
2023/09/18 11:30:57;;;;;;;0.75;0.50;;;20.50;1.00;;;;;;5061194;28;20044;-73
2023/09/18 11:33:37;;;;;;;2.17;0.63;;;20.50;1.00;;;;;;5061888;28;20133;-74
2023/09/18 11:36:06;;;;;;;0.47;0.40;;;20.30;99.90;;;;;;5058391;28;20167;-74
2023/09/18 11:38:54;;;;;;;0.95;0.80;;;20.30;1.00;;;;;;5078018;28;20174;-74
2023/09/18 11:41:25;;;;;;;1.17;0.63;;;20.40;99.90;;;;;;5074289;28;20125;-74
2023/09/18 11:44:05;;;;;;;0.82;0.50;;;20.40;45.10;;;;;;5064553;28;20079;-74
2023/09/18 11:46:32;;;;;;;0.80;0.50;;;20.30;37.20;;;;;;5050311;28;20048;-75
2023/09/18 11:48:59;;;;;;;0.73;0.43;;;20.30;1.00;;;;;;5059357;28;20121;-73
2023/09/18 11:51:26;;;;;;;0.30;0.30;;;20.20;99.90;;;;;;5059074;28;20284;-73
2023/09/18 11:53:54;;;;;;;0.50;0.40;;;20.00;87.70;;;;;;5077862;28;20113;-75
2023/09/18 11:56:21;;;;;;;0.73;0.50;;;20.10;17.60;;;;;;5061399;28;20135;-76
2023/09/18 11:58:50;;;;;;;0.55;0.50;;;20.10;1.00;;;;;;5060912;28;20056;-73
2023/09/18 12:01:18;;;;;;;0.47;0.30;;;20.00;99.90;;;;;;5058966;28;20497;-74
2023/09/18 12:03:46;;;;;;;0.70;0.47;;;19.90;99.90;;;;;;5076481;28;20051;-76
2023/09/18 12:06:13;;;;;;;0.75;0.50;;;19.90;1.00;;;;;;5075855;28;20063;-74
2023/09/18 12:08:40;;;;;;;0.50;0.38;;;20.30;1.00;;;;;;5074734;28;20044;-74
2023/09/18 12:11:08;;;;;;;1.17;0.30;;;20.80;99.90;;;;;;5075259;28;20051;-73
2023/09/18 12:13:35;;;;;;;0.50;0.40;;;20.90;99.90;;;;;;5059970;28;20459;-74
2023/09/18 12:16:05;;;;;;;0.85;0.60;;;20.70;99.90;;;;;;5076948;28;20060;-74
2023/09/18 12:18:34;;;;;;;0.57;0.40;;;20.80;96.30;;;;;;5059735;28;20531;-74
2023/09/18 12:21:04;;;;;;;0.77;0.50;;;20.80;1.00;;;;;;5079398;28;20048;-74
2023/09/18 12:23:38;;;;;;;0.43;0.43;;;20.90;99.90;;;;;;5059653;28;20047;-74
2023/09/18 12:26:07;;;;;;;1.23;0.60;;;20.90;26.40;;;;;;5075969;28;20079;-74
2023/09/18 12:28:35;;;;;;;0.32;0.32;;;20.70;99.90;;;;;;5077338;28;20044;-74
2023/09/18 12:31:06;;;;;;;0.35;0.35;;;20.80;99.90;;;;;;5076891;28;20052;-74
2023/09/18 12:33:35;;;;;;;1.00;0.70;;;21.10;1.00;;;;;;5074987;28;20275;-74
2023/09/18 12:36:06;;;;;;;0.30;0.30;;;21.70;99.90;;;;;;5057405;28;20052;-74
2023/09/18 12:38:33;;;;;;;0.63;0.50;;;22.10;99.90;;;;;;5074398;28;20040;-74
2023/09/18 12:41:05;;;;;;;0.75;0.50;;;22.30;99.90;;;;;;5051440;28;20133;-74
2023/09/18 12:43:39;;;;;;;0.35;0.32;;;22.40;99.90;;;;;;5043463;28;20061;-73
2023/09/18 12:46:06;;;;;;;0.98;0.68;;;22.10;99.90;;;;;;5059159;28;20135;-74
2023/09/18 12:48:46;;;;;;;1.10;0.70;;;21.70;99.90;;;;;;5075637;28;20072;-74
2023/09/18 12:51:13;;;;;;;0.80;0.50;;;21.20;1.00;;;;;;5075070;28;20091;-73
2023/09/18 12:53:41;;;;;;;0.90;0.60;;;20.80;99.90;;;;;;5076655;28;20579;-73
2023/09/18 12:56:12;;;;;;;0.93;0.70;;;20.40;99.90;;;;;;5076134;28;20110;-82
2023/09/18 12:58:40;;;;;;;1.10;0.80;;;20.10;5.60;;;;;;5039443;28;20102;-74
2023/09/18 13:01:27;;;;;;;0.85;0.70;;;20.20;78.30;;;;;;5074350;28;20054;-72